Time;durP1;ratioP1;P1;durP2;ratioP2;P2;SDS_P1;SDS_P2;PMS_P1;PMS_P2;Temp;Humidity;BMP_temperature;BMP_pressure;BME280_temperature;BME280_humidity;BME280_pressure;Samples;Min_cycle;Max_cycle;Signal;HPM_P1;HPM_P2
2022/02/16 00:02:09;;;;;;;4.88;2.80;;;18.20;67.00;;;;;;5025304;28;20044;-61
2022/02/16 00:04:35;;;;;;;5.18;2.42;;;18.20;67.10;;;;;;5026830;28;20060;-62
2022/02/16 00:07:01;;;;;;;5.53;2.55;;;18.20;67.30;;;;;;5026794;28;20025;-62
2022/02/16 00:09:27;;;;;;;4.63;2.33;;;18.20;67.20;;;;;;5027181;28;20026;-62
2022/02/16 00:11:53;;;;;;;5.55;2.70;;;18.20;67.20;;;;;;5029142;28;20040;-61
2022/02/16 00:14:18;;;;;;;5.10;2.45;;;18.20;67.20;;;;;;5025587;28;20041;-62
2022/02/16 00:16:44;;;;;;;4.55;2.40;;;18.20;67.20;;;;;;5026081;28;20103;-62
2022/02/16 00:19:10;;;;;;;4.68;2.38;;;18.20;67.30;;;;;;5025513;28;20109;-62
2022/02/16 00:21:36;;;;;;;4.80;2.30;;;18.20;67.30;;;;;;5030968;28;20083;-62
2022/02/16 00:24:01;;;;;;;4.18;2.40;;;18.20;67.40;;;;;;5031795;28;20041;-62
2022/02/16 00:26:27;;;;;;;4.75;2.40;;;18.20;67.40;;;;;;5031054;28;20038;-62
2022/02/16 00:28:52;;;;;;;5.00;2.40;;;18.20;67.40;;;;;;5030265;28;20045;-62
2022/02/16 00:31:18;;;;;;;3.40;1.92;;;18.20;67.40;;;;;;5030304;28;20128;-62
2022/02/16 00:33:44;;;;;;;4.90;2.03;;;18.20;67.40;;;;;;5030845;28;20497;-62
2022/02/16 00:36:09;;;;;;;4.55;2.15;;;18.10;67.40;;;;;;5031355;28;20100;-62
2022/02/16 00:38:35;;;;;;;3.85;2.08;;;18.10;67.30;;;;;;5031154;28;20483;-62
2022/02/16 00:41:01;;;;;;;4.65;2.10;;;18.10;67.30;;;;;;5030315;28;20101;-62
2022/02/16 00:43:27;;;;;;;4.65;2.25;;;18.10;67.30;;;;;;5029969;28;20021;-62
2022/02/16 00:45:53;;;;;;;5.50;2.22;;;18.10;67.40;;;;;;5030561;28;20101;-60
2022/02/16 00:48:18;;;;;;;4.40;2.28;;;18.10;67.40;;;;;;5017170;28;20128;-62
2022/02/16 00:50:44;;;;;;;5.38;2.25;;;18.10;67.40;;;;;;5032911;28;20057;-62
2022/02/16 00:53:10;;;;;;;4.88;2.35;;;18.10;67.50;;;;;;5028806;28;20111;-62
2022/02/16 00:55:36;;;;;;;3.85;2.00;;;18.10;67.60;;;;;;5030177;28;20053;-62
2022/02/16 00:58:07;;;;;;;5.15;2.20;;;18.00;67.30;;;;;;5028300;28;20040;-61
2022/02/16 01:00:34;;;;;;;3.92;1.90;;;18.00;67.50;;;;;;5030241;28;20056;-61
2022/02/16 01:02:59;;;;;;;4.85;2.20;;;18.10;67.60;;;;;;5031353;28;20026;-62
2022/02/16 01:05:25;;;;;;;4.43;2.05;;;18.00;67.30;;;;;;5029658;28;20055;-62
2022/02/16 01:07:50;;;;;;;3.63;1.92;;;18.00;67.50;;;;;;5029994;28;20048;-62
2022/02/16 01:10:16;;;;;;;4.35;2.17;;;18.00;67.60;;;;;;5030020;28;20112;-62
2022/02/16 01:12:42;;;;;;;3.85;2.05;;;18.00;67.60;;;;;;5029563;28;20604;-62
2022/02/16 01:15:08;;;;;;;3.38;1.80;;;18.00;67.70;;;;;;5031008;28;20109;-62
2022/02/16 01:17:34;;;;;;;4.35;2.20;;;18.00;67.50;;;;;;5030361;28;20041;-62
2022/02/16 01:20:00;;;;;;;4.95;2.22;;;18.00;67.60;;;;;;5029590;28;20030;-62
2022/02/16 01:22:25;;;;;;;4.55;2.03;;;18.00;67.70;;;;;;5028692;28;20030;-62
2022/02/16 01:24:51;;;;;;;5.95;2.22;;;18.00;67.70;;;;;;5029840;28;20056;-62
2022/02/16 01:27:17;;;;;;;4.85;2.00;;;17.90;67.70;;;;;;5029348;28;20060;-61
2022/02/16 01:29:43;;;;;;;4.53;2.10;;;17.90;67.70;;;;;;5031805;28;20042;-62
2022/02/16 01:32:08;;;;;;;4.63;2.08;;;17.90;67.70;;;;;;5027092;28;20094;-62
2022/02/16 01:34:34;;;;;;;3.97;1.90;;;17.90;67.70;;;;;;5029466;28;20029;-61
2022/02/16 01:37:00;;;;;;;4.57;2.00;;;17.90;67.70;;;;;;5027991;28;20021;-62
2022/02/16 01:39:25;;;;;;;5.65;2.20;;;17.90;67.70;;;;;;5029576;28;20021;-62
2022/02/16 01:41:53;;;;;;;4.35;2.00;;;17.90;67.80;;;;;;5031853;28;20500;-61
2022/02/16 01:44:20;;;;;;;4.65;1.75;;;17.90;67.50;;;;;;5029842;28;20037;-62
2022/02/16 01:46:49;;;;;;;6.38;2.28;;;17.90;67.60;;;;;;5029261;28;20038;-62
2022/02/16 01:49:15;;;;;;;6.13;2.15;;;17.90;67.60;;;;;;5029264;28;20024;-62
2022/02/16 01:51:40;;;;;;;5.00;2.00;;;17.90;67.80;;;;;;5029040;28;20402;-62
2022/02/16 01:54:06;;;;;;;3.85;1.90;;;17.90;67.80;;;;;;5013970;28;20378;-62
2022/02/16 01:56:32;;;;;;;4.03;1.67;;;17.90;67.80;;;;;;5030988;28;20810;-61
2022/02/16 01:58:58;;;;;;;3.60;1.83;;;17.90;67.70;;;;;;5060680;28;20041;-62
2022/02/16 02:01:24;;;;;;;5.28;2.00;;;17.90;67.80;;;;;;5060939;28;20398;-62
2022/02/16 02:03:49;;;;;;;5.32;2.10;;;17.80;67.70;;;;;;5029177;28;20029;-62
2022/02/16 02:06:15;;;;;;;4.43;1.88;;;17.80;67.70;;;;;;5029083;28;20530;-62
2022/02/16 02:08:41;;;;;;;4.28;1.88;;;17.80;67.80;;;;;;5019060;28;20398;-62
2022/02/16 02:11:07;;;;;;;4.60;1.80;;;17.80;67.80;;;;;;5026773;28;20021;-62
2022/02/16 02:13:32;;;;;;;5.07;2.10;;;17.80;67.70;;;;;;5028737;28;20059;-62
2022/02/16 02:15:58;;;;;;;3.88;1.77;;;17.80;67.70;;;;;;5027248;28;20617;-62
2022/02/16 02:18:24;;;;;;;3.85;1.67;;;17.80;67.80;;;;;;5028789;28;20064;-62
2022/02/16 02:20:49;;;;;;;5.28;2.00;;;17.80;67.70;;;;;;5026937;28;20445;-61
2022/02/16 02:23:15;;;;;;;4.53;1.88;;;17.80;67.80;;;;;;5025928;28;20451;-62
2022/02/16 02:25:48;;;;;;;4.85;1.90;;;17.80;67.70;;;;;;5059937;28;20026;-62
2022/02/16 02:28:15;;;;;;;5.28;1.80;;;17.80;67.60;;;;;;5028542;28;20057;-62
2022/02/16 02:30:41;;;;;;;4.57;1.80;;;17.80;67.60;;;;;;5028324;28;20125;-62
2022/02/16 02:33:06;;;;;;;5.00;2.00;;;17.70;67.70;;;;;;5029380;28;20117;-62
2022/02/16 02:35:32;;;;;;;4.15;1.83;;;17.80;67.80;;;;;;5028561;28;20026;-62
2022/02/16 02:37:58;;;;;;;5.55;2.00;;;17.80;67.70;;;;;;5028136;28;20030;-62
2022/02/16 02:40:23;;;;;;;3.95;1.77;;;17.70;67.60;;;;;;5027995;28;20032;-62
2022/02/16 02:42:49;;;;;;;3.88;1.55;;;17.80;67.80;;;;;;5028251;28;20449;-61
2022/02/16 02:45:15;;;;;;;4.10;1.70;;;17.70;67.70;;;;;;5026904;28;20085;-61
2022/02/16 02:47:41;;;;;;;4.93;1.80;;;17.70;67.70;;;;;;5030604;28;20389;-62
2022/02/16 02:50:07;;;;;;;4.78;1.63;;;17.70;67.60;;;;;;5026553;28;20087;-62
2022/02/16 02:52:36;;;;;;;4.57;1.70;;;17.70;67.70;;;;;;5027095;28;20402;-62
2022/02/16 02:55:01;;;;;;;4.82;1.80;;;17.70;67.70;;;;;;5015764;28;20026;-62
2022/02/16 02:57:27;;;;;;;5.60;1.95;;;17.70;67.70;;;;;;5028252;28;20229;-62
2022/02/16 02:59:53;;;;;;;3.65;1.60;;;17.70;67.70;;;;;;5030722;28;20021;-61
2022/02/16 03:02:18;;;;;;;3.22;1.52;;;17.70;67.60;;;;;;5026691;28;20034;-62
2022/02/16 03:04:44;;;;;;;4.80;1.80;;;17.70;67.70;;;;;;5027772;28;20026;-62
2022/02/16 03:07:10;;;;;;;4.38;1.58;;;17.70;67.80;;;;;;5059595;28;20071;-62
2022/02/16 03:09:35;;;;;;;3.20;1.75;;;17.70;67.70;;;;;;5014972;28;20080;-62
2022/02/16 03:12:01;;;;;;;5.55;1.95;;;17.70;67.60;;;;;;5028605;28;20041;-61
2022/02/16 03:14:28;;;;;;;3.10;1.60;;;17.70;67.70;;;;;;5027898;28;20100;-62
2022/02/16 03:16:54;;;;;;;6.13;2.00;;;17.70;67.70;;;;;;5059125;28;20033;-62
2022/02/16 03:19:19;;;;;;;4.93;1.88;;;17.70;67.70;;;;;;5027609;28;20021;-62
2022/02/16 03:21:45;;;;;;;6.03;1.83;;;17.60;67.60;;;;;;5027827;28;20040;-62
2022/02/16 03:24:10;;;;;;;4.38;1.70;;;17.60;67.70;;;;;;5027328;28;20484;-62
2022/02/16 03:26:36;;;;;;;6.10;2.25;;;17.60;67.60;;;;;;5030052;28;20408;-62
2022/02/16 03:29:02;;;;;;;6.43;2.10;;;17.60;67.50;;;;;;5025860;28;20437;-61
2022/02/16 03:31:28;;;;;;;4.30;1.77;;;17.60;67.70;;;;;;5027367;28;20036;-62
2022/02/16 03:33:53;;;;;;;4.22;1.80;;;17.60;67.60;;;;;;5026097;28;20057;-62
2022/02/16 03:36:19;;;;;;;6.32;1.92;;;17.60;67.70;;;;;;5027400;28;20501;-62
2022/02/16 03:38:45;;;;;;;7.10;1.92;;;17.60;67.60;;;;;;5026402;28;20025;-62
2022/02/16 03:41:10;;;;;;;6.38;1.90;;;17.60;67.50;;;;;;5025978;28;20083;-62
2022/02/16 03:43:36;;;;;;;4.90;1.63;;;17.60;67.60;;;;;;5027226;28;20045;-62
2022/02/16 03:46:01;;;;;;;5.55;1.98;;;17.60;67.70;;;;;;5027191;28;20116;-62
2022/02/16 03:48:27;;;;;;;4.85;1.80;;;17.60;67.50;;;;;;5027404;28;20038;-62
2022/02/16 03:50:53;;;;;;;5.10;1.73;;;17.60;67.60;;;;;;5029956;28;20025;-61
2022/02/16 03:53:20;;;;;;;4.13;1.50;;;17.60;67.50;;;;;;5023398;28;20091;-61
2022/02/16 03:55:45;;;;;;;6.13;1.88;;;17.60;67.50;;;;;;5026626;28;20079;-62
2022/02/16 03:58:11;;;;;;;6.82;1.95;;;17.60;67.60;;;;;;5027022;28;20037;-62
2022/02/16 04:00:36;;;;;;;5.85;2.08;;;17.50;67.60;;;;;;5027181;28;20057;-62
2022/02/16 04:03:08;;;;;;;4.53;1.63;;;17.50;67.50;;;;;;5028000;28;20060;-62
2022/02/16 04:05:34;;;;;;;6.25;1.90;;;17.50;67.40;;;;;;5027415;28;20056;-62
2022/02/16 04:08:00;;;;;;;6.40;1.80;;;17.50;67.50;;;;;;5025263;28;20441;-61
2022/02/16 04:10:25;;;;;;;7.18;1.98;;;17.50;67.60;;;;;;5024935;28;20029;-62
2022/02/16 04:12:51;;;;;;;6.72;1.80;;;17.50;67.70;;;;;;5025742;28;20040;-61
2022/02/16 04:15:17;;;;;;;6.22;1.65;;;17.50;67.50;;;;;;5027230;28;20562;-61
2022/02/16 04:17:42;;;;;;;6.00;1.60;;;17.50;67.50;;;;;;5029383;28;20053;-62
2022/02/16 04:20:09;;;;;;;6.18;2.08;;;17.50;67.40;;;;;;5025437;28;20084;-62
2022/02/16 04:22:42;;;;;;;4.93;1.70;;;17.50;67.50;;;;;;5026710;28;20433;-61
2022/02/16 04:25:08;;;;;;;6.82;2.15;;;17.50;67.40;;;;;;5025686;28;20364;-62
2022/02/16 04:27:34;;;;;;;5.38;1.83;;;17.50;67.50;;;;;;5026867;28;20025;-62
2022/02/16 04:29:59;;;;;;;5.28;1.60;;;17.50;67.50;;;;;;5027843;28;20046;-62
2022/02/16 04:32:25;;;;;;;5.80;1.90;;;17.40;67.50;;;;;;5026629;28;20501;-62
2022/02/16 04:34:51;;;;;;;6.50;2.00;;;17.50;67.50;;;;;;5026685;28;20021;-62
2022/02/16 04:37:16;;;;;;;6.75;2.22;;;17.50;67.50;;;;;;5026337;28;20036;-62
2022/02/16 04:39:42;;;;;;;5.20;1.60;;;17.50;67.40;;;;;;5026901;28;20022;-62
2022/02/16 04:42:07;;;;;;;5.82;2.00;;;17.40;67.50;;;;;;5015117;28;20034;-62
2022/02/16 04:44:33;;;;;;;6.18;2.15;;;17.50;67.60;;;;;;5029078;28;20059;-61
2022/02/16 04:46:59;;;;;;;5.80;1.83;;;17.40;67.50;;;;;;5025171;28;20021;-62
2022/02/16 04:49:24;;;;;;;6.18;1.70;;;17.40;67.50;;;;;;5026588;28;20025;-62
2022/02/16 04:51:50;;;;;;;5.30;1.50;;;17.40;67.50;;;;;;5024998;28;20083;-62
2022/02/16 04:54:16;;;;;;;6.63;1.75;;;17.40;67.50;;;;;;5026506;28;20057;-62
2022/02/16 04:56:41;;;;;;;6.80;1.70;;;17.40;67.50;;;;;;5028919;28;20056;-62
2022/02/16 04:59:07;;;;;;;5.75;1.83;;;17.40;67.40;;;;;;5025167;28;20025;-62
2022/02/16 05:01:32;;;;;;;6.10;1.88;;;17.40;67.40;;;;;;5026463;28;20101;-62
2022/02/16 05:03:59;;;;;;;5.97;2.00;;;17.40;67.50;;;;;;5026105;28;20104;-62
2022/02/16 05:06:24;;;;;;;5.82;1.80;;;17.40;67.40;;;;;;5026852;28;20050;-62
2022/02/16 05:08:50;;;;;;;5.25;1.63;;;17.40;67.40;;;;;;5028509;28;20068;-62
2022/02/16 05:11:16;;;;;;;5.30;1.60;;;17.40;67.50;;;;;;5023212;28;20049;-62
2022/02/16 05:13:41;;;;;;;5.85;1.90;;;17.40;67.50;;;;;;5024720;28;20041;-62
2022/02/16 05:16:07;;;;;;;5.07;1.55;;;17.40;67.40;;;;;;5029723;28;20025;-61
2022/02/16 05:18:34;;;;;;;4.95;1.40;;;17.40;67.40;;;;;;5029596;28;20029;-61
2022/02/16 05:21:00;;;;;;;6.20;1.75;;;17.30;67.40;;;;;;5031301;28;20018;-62
2022/02/16 05:23:26;;;;;;;4.10;1.45;;;17.40;67.30;;;;;;5029676;28;20120;-62
2022/02/16 05:25:53;;;;;;;4.20;1.65;;;17.40;67.40;;;;;;5028334;28;20086;-61
2022/02/16 05:28:22;;;;;;;4.47;1.38;;;17.40;67.40;;;;;;5029449;28;20048;-62
2022/02/16 05:30:48;;;;;;;5.90;1.90;;;17.40;67.60;;;;;;5025595;28;20045;-62
2022/02/16 05:33:14;;;;;;;5.00;1.50;;;17.30;67.30;;;;;;5028315;28;20069;-61
2022/02/16 05:35:39;;;;;;;4.05;1.60;;;17.30;67.30;;;;;;5031901;28;20026;-62
2022/02/16 05:38:05;;;;;;;3.92;1.20;;;17.40;67.40;;;;;;5028095;28;20033;-62
2022/02/16 05:40:31;;;;;;;6.47;1.70;;;17.30;67.40;;;;;;5029405;28;20055;-62
2022/02/16 05:42:57;;;;;;;3.72;1.40;;;17.30;67.40;;;;;;5029542;28;20053;-62
2022/02/16 05:45:23;;;;;;;5.95;1.90;;;17.40;67.50;;;;;;5013551;28;20030;-61
2022/02/16 05:47:48;;;;;;;4.05;1.50;;;17.30;67.40;;;;;;5031503;28;20493;-61
2022/02/16 05:50:14;;;;;;;3.90;1.38;;;17.30;67.30;;;;;;5027719;28;20033;-62
2022/02/16 05:52:40;;;;;;;4.65;1.60;;;17.30;67.50;;;;;;5029033;28;20456;-61
2022/02/16 05:55:05;;;;;;;4.03;1.42;;;17.30;67.50;;;;;;5029284;28;20604;-61
2022/02/16 05:57:32;;;;;;;4.72;1.50;;;17.30;67.40;;;;;;5029319;28;20068;-62
2022/02/16 05:59:58;;;;;;;7.15;1.73;;;17.30;68.00;;;;;;5017100;28;20132;-62
2022/02/16 06:02:24;;;;;;;5.10;1.73;;;17.40;67.60;;;;;;5029904;28;20486;-62
2022/02/16 06:04:50;;;;;;;5.22;1.40;;;17.40;67.30;;;;;;5027513;28;20028;-62
2022/02/16 06:07:15;;;;;;;6.60;1.70;;;17.40;67.70;;;;;;5028785;28;20063;-61
2022/02/16 06:09:41;;;;;;;6.13;1.65;;;17.40;67.40;;;;;;5027506;28;20387;-62
2022/02/16 06:12:07;;;;;;;5.22;1.60;;;17.40;67.90;;;;;;5029334;28;20069;-62
2022/02/16 06:14:32;;;;;;;6.65;1.67;;;17.40;68.30;;;;;;5030969;28;20449;-61
2022/02/16 06:16:58;;;;;;;6.55;1.67;;;17.40;68.40;;;;;;5024399;28;20041;-62
2022/02/16 06:19:24;;;;;;;6.22;1.60;;;17.40;68.90;;;;;;5028316;28;20026;-62
2022/02/16 06:21:49;;;;;;;8.82;1.75;;;17.40;68.00;;;;;;5028856;28;20414;-62
2022/02/16 06:24:16;;;;;;;4.90;1.50;;;17.40;67.90;;;;;;5027532;28;20773;-62
2022/02/16 06:26:42;;;;;;;6.72;1.60;;;17.40;67.90;;;;;;5030994;28;20486;-61
2022/02/16 06:29:08;;;;;;;7.15;1.60;;;17.40;68.90;;;;;;5026918;28;20108;-61
2022/02/16 06:31:34;;;;;;;6.70;1.60;;;17.40;68.10;;;;;;5027532;28;20140;-62
2022/02/16 06:33:59;;;;;;;7.35;1.55;;;17.40;68.00;;;;;;5027689;28;20032;-61
2022/02/16 06:36:25;;;;;;;4.13;1.25;;;17.30;68.00;;;;;;5028828;28;20601;-62
2022/02/16 06:38:50;;;;;;;5.70;1.50;;;17.30;68.60;;;;;;5058770;28;20061;-62
2022/02/16 06:41:17;;;;;;;7.28;1.60;;;17.30;68.30;;;;;;5028331;28;20029;-62
2022/02/16 06:43:42;;;;;;;4.85;1.58;;;17.30;68.90;;;;;;5026856;28;20032;-62
2022/02/16 06:46:08;;;;;;;7.07;1.48;;;17.30;69.00;;;;;;5027875;28;20609;-62
2022/02/16 06:48:34;;;;;;;5.53;1.48;;;17.30;69.10;;;;;;5026989;28;20052;-61
2022/02/16 06:50:59;;;;;;;5.57;1.30;;;17.30;68.80;;;;;;5029547;28;20101;-62
2022/02/16 06:53:25;;;;;;;5.45;1.85;;;17.30;68.90;;;;;;5029048;28;20112;-61
2022/02/16 06:55:51;;;;;;;4.78;1.70;;;17.30;68.60;;;;;;5026752;28;20496;-62
2022/02/16 06:58:17;;;;;;;4.40;1.30;;;17.30;68.50;;;;;;5027727;28;20623;-62
2022/02/16 07:00:42;;;;;;;7.05;1.50;;;17.30;68.70;;;;;;5027647;28;20061;-62
2022/02/16 07:03:08;;;;;;;5.75;1.80;;;17.30;68.70;;;;;;5027296;28;20053;-62
2022/02/16 07:05:34;;;;;;;6.13;1.60;;;17.30;68.90;;;;;;5030090;28;20059;-62
2022/02/16 07:07:59;;;;;;;5.13;1.60;;;17.30;68.70;;;;;;5026277;28;20032;-61
2022/02/16 07:10:25;;;;;;;6.88;1.40;;;17.30;69.10;;;;;;5027815;28;20033;-62
2022/02/16 07:12:51;;;;;;;5.35;1.52;;;17.30;68.70;;;;;;5027917;28;20029;-61
2022/02/16 07:15:17;;;;;;;4.32;1.40;;;17.30;69.00;;;;;;5027483;28;20029;-61
2022/02/16 07:17:43;;;;;;;3.17;1.30;;;17.30;68.40;;;;;;5030132;28;20025;-62
2022/02/16 07:20:10;;;;;;;5.18;1.48;;;17.20;68.80;;;;;;5023842;28;20055;-62
2022/02/16 07:22:43;;;;;;;5.53;1.33;;;17.20;68.50;;;;;;5026180;28;20036;-61
2022/02/16 07:25:09;;;;;;;4.18;1.30;;;17.20;68.80;;;;;;5027566;28;20062;-61
2022/02/16 07:27:35;;;;;;;4.68;1.20;;;17.20;68.70;;;;;;5026163;28;20084;-62
2022/02/16 07:30:01;;;;;;;5.18;1.40;;;17.20;68.40;;;;;;5027649;28;20042;-61
2022/02/16 07:32:27;;;;;;;5.00;1.20;;;17.20;69.00;;;;;;5028757;28;20075;-62
2022/02/16 07:34:53;;;;;;;3.97;1.40;;;17.20;68.80;;;;;;5025970;28;20049;-62
2022/02/16 07:37:18;;;;;;;3.85;1.23;;;17.20;69.00;;;;;;5027208;28;20151;-61
2022/02/16 07:39:44;;;;;;;4.00;1.20;;;17.20;68.60;;;;;;5026245;28;20026;-62
2022/02/16 07:42:10;;;;;;;5.05;1.23;;;17.20;68.50;;;;;;5027533;28;20459;-62
2022/02/16 07:44:35;;;;;;;3.97;1.35;;;17.20;68.80;;;;;;5029547;28;20512;-61
2022/02/16 07:47:02;;;;;;;4.70;1.27;;;17.20;68.70;;;;;;5026097;28;20523;-61
2022/02/16 07:49:28;;;;;;;4.32;1.35;;;17.20;68.80;;;;;;5027145;28;20033;-61
2022/02/16 07:51:53;;;;;;;2.67;1.15;;;17.20;68.70;;;;;;5027176;28;20583;-61
2022/02/16 07:54:19;;;;;;;3.35;1.30;;;17.20;68.70;;;;;;5027066;28;20029;-61
2022/02/16 07:56:45;;;;;;;5.63;1.40;;;17.20;68.60;;;;;;5029625;28;20033;-61
2022/02/16 07:59:11;;;;;;;3.90;1.20;;;17.20;68.70;;;;;;5026745;28;20132;-62
2022/02/16 08:01:36;;;;;;;4.53;1.40;;;17.20;68.70;;;;;;5025709;28;20112;-62
2022/02/16 08:04:17;;;;;;;5.65;1.13;;;17.20;68.90;;;;;;5026998;28;20486;-61
2022/02/16 08:06:43;;;;;;;3.63;1.02;;;17.20;68.70;;;;;;5025469;28;20079;-62
2022/02/16 08:09:10;;;;;;;4.80;1.20;;;17.20;68.70;;;;;;5027406;28;20034;-62
2022/02/16 08:11:39;;;;;;;3.60;1.20;;;17.20;68.60;;;;;;5027333;28;20108;-61
2022/02/16 08:14:04;;;;;;;4.97;1.35;;;17.20;68.70;;;;;;5025149;28;20482;-62
2022/02/16 08:16:31;;;;;;;4.65;1.33;;;17.20;68.70;;;;;;5025942;28;20028;-62
2022/02/16 08:18:56;;;;;;;4.90;1.20;;;17.10;68.60;;;;;;5026941;28;20040;-62
2022/02/16 08:21:22;;;;;;;3.90;1.35;;;17.10;68.70;;;;;;5027000;28;20026;-61
2022/02/16 08:23:48;;;;;;;3.30;1.20;;;17.10;68.80;;;;;;5029537;28;20045;-62
2022/02/16 08:26:13;;;;;;;3.42;1.10;;;17.20;69.30;;;;;;5025337;28;20561;-61
2022/02/16 08:28:39;;;;;;;2.85;1.23;;;17.10;68.70;;;;;;5026329;28;20136;-61
2022/02/16 08:31:05;;;;;;;3.53;1.15;;;17.10;68.50;;;;;;5025817;28;20124;-61
2022/02/16 08:33:30;;;;;;;2.95;1.08;;;17.10;68.70;;;;;;5026927;28;20037;-62
2022/02/16 08:35:56;;;;;;;3.47;1.20;;;17.10;68.50;;;;;;5028846;28;20033;-62
2022/02/16 08:38:22;;;;;;;4.13;1.38;;;17.10;68.60;;;;;;5027472;28;20028;-62
2022/02/16 08:40:47;;;;;;;3.60;1.20;;;17.10;68.50;;;;;;5026271;28;20434;-61
2022/02/16 08:43:13;;;;;;;2.25;1.08;;;17.10;68.30;;;;;;5030291;28;20029;-61
2022/02/16 08:45:39;;;;;;;4.95;1.30;;;17.10;68.40;;;;;;5029263;28;20048;-61
2022/02/16 08:48:05;;;;;;;3.45;1.17;;;17.10;68.30;;;;;;5023237;28;20034;-61
2022/02/16 08:50:31;;;;;;;3.33;1.13;;;17.10;68.40;;;;;;5032284;28;20025;-62
2022/02/16 08:52:57;;;;;;;3.55;1.10;;;17.10;68.20;;;;;;5029315;28;20048;-62
2022/02/16 08:55:23;;;;;;;3.47;1.00;;;17.10;68.40;;;;;;5029027;28;20079;-61
2022/02/16 08:57:48;;;;;;;3.35;1.10;;;17.10;68.40;;;;;;5030337;28;20032;-61
2022/02/16 09:00:15;;;;;;;4.65;1.10;;;17.10;68.40;;;;;;5034196;28;20038;-61
2022/02/16 09:02:41;;;;;;;4.25;1.15;;;17.10;68.50;;;;;;5032553;28;20025;-61
2022/02/16 09:05:06;;;;;;;3.33;1.10;;;17.10;68.40;;;;;;5026008;28;20030;-62
2022/02/16 09:07:32;;;;;;;3.80;1.10;;;17.10;68.50;;;;;;5029922;28;20025;-61
2022/02/16 09:10:04;;;;;;;3.90;1.10;;;17.10;68.50;;;;;;5068758;28;20029;-61
2022/02/16 09:12:30;;;;;;;3.08;1.00;;;17.10;68.20;;;;;;5014737;28;20034;-62
2022/02/16 09:15:00;;;;;;;2.90;1.10;;;17.10;68.50;;;;;;5032207;28;20084;-61
2022/02/16 09:17:28;;;;;;;2.47;0.98;;;17.10;68.50;;;;;;5029502;28;20036;-61
2022/02/16 09:19:54;;;;;;;3.90;1.00;;;17.10;68.50;;;;;;5028562;28;20044;-61
2022/02/16 09:22:21;;;;;;;4.20;0.93;;;17.10;68.70;;;;;;5029697;28;20022;-61
2022/02/16 09:24:47;;;;;;;3.95;1.10;;;17.10;68.50;;;;;;5021184;28;20461;-61
2022/02/16 09:27:13;;;;;;;2.25;0.80;;;17.10;68.50;;;;;;5029445;28;20105;-60
2022/02/16 09:29:40;;;;;;;2.85;0.88;;;17.10;68.50;;;;;;5031911;28;20092;-61
2022/02/16 09:32:06;;;;;;;2.35;1.02;;;17.10;68.70;;;;;;5028101;28;20504;-61
2022/02/16 09:34:32;;;;;;;4.20;1.00;;;17.10;68.60;;;;;;5029611;28;20101;-62
2022/02/16 09:36:58;;;;;;;3.25;1.10;;;17.10;68.50;;;;;;5029453;28;20116;-61
2022/02/16 09:39:24;;;;;;;3.08;1.08;;;17.10;68.50;;;;;;5016253;28;20545;-61
2022/02/16 09:41:50;;;;;;;3.85;1.13;;;17.10;68.50;;;;;;5031511;28;20454;-61
2022/02/16 09:44:19;;;;;;;2.40;1.00;;;17.10;68.20;;;;;;5029847;28;20117;-61
2022/02/16 09:46:45;;;;;;;3.88;1.10;;;17.10;68.50;;;;;;5061135;28;20487;-61
2022/02/16 09:49:12;;;;;;;2.92;1.00;;;17.10;68.60;;;;;;5029433;28;20109;-61
2022/02/16 09:51:38;;;;;;;2.60;0.82;;;17.10;68.60;;;;;;5029130;28;20445;-61
2022/02/16 09:54:04;;;;;;;2.85;0.93;;;17.10;68.60;;;;;;5013903;28;20136;-61
2022/02/16 09:56:31;;;;;;;3.88;1.00;;;17.10;68.50;;;;;;5030623;28;20557;-62
2022/02/16 09:58:57;;;;;;;3.85;1.00;;;17.10;68.60;;;;;;5026522;28;20025;-62
2022/02/16 10:01:24;;;;;;;5.13;1.13;;;17.10;68.50;;;;;;5029625;28;20048;-61
2022/02/16 10:04:02;;;;;;;3.17;1.00;;;17.00;68.30;;;;;;5027473;28;20371;-62
2022/02/16 10:06:54;;;;;;;6.10;1.77;;;17.10;68.60;;;;;;5020312;28;20053;-61
2022/02/16 10:09:24;;;;;;;26.50;12.85;;;17.10;69.00;;;;;;5024070;28;20113;-61
2022/02/16 10:11:51;;;;;;;20.27;13.85;;;17.10;69.10;;;;;;5043690;28;20045;-61
2022/02/16 10:14:19;;;;;;;16.58;8.98;;;17.10;69.10;;;;;;5029394;28;20453;-61
2022/02/16 10:16:45;;;;;;;17.10;10.93;;;17.20;69.00;;;;;;5028724;28;20033;-61
2022/02/16 10:19:11;;;;;;;20.02;9.55;;;17.10;69.30;;;;;;5027325;28;20052;-61
2022/02/16 10:21:42;;;;;;;12.32;8.75;;;17.20;69.50;;;;;;5026921;28;20014;-61
2022/02/16 10:24:20;;;;;;;12.07;8.20;;;17.20;69.20;;;;;;5028850;28;20048;-61
2022/02/16 10:26:52;;;;;;;12.43;7.68;;;17.30;69.20;;;;;;5029501;28;20018;-62
2022/02/16 10:29:24;;;;;;;13.48;6.80;;;17.30;69.20;;;;;;5027445;28;20068;-61
2022/02/16 10:31:49;;;;;;;10.02;6.10;;;17.30;69.00;;;;;;5028043;28;20037;-62
2022/02/16 10:34:15;;;;;;;10.35;5.63;;;17.40;69.10;;;;;;5028065;28;20034;-62
2022/02/16 10:36:41;;;;;;;10.85;6.25;;;17.40;69.20;;;;;;5026472;28;20156;-62
2022/02/16 10:39:10;;;;;;;10.98;7.53;;;17.50;69.10;;;;;;5028396;28;20108;-62
2022/02/16 10:42:08;;;;;;;9.90;6.30;;;17.50;69.00;;;;;;5028427;28;20589;-62
2022/02/16 10:44:35;;;;;;;10.52;6.00;;;17.60;68.80;;;;;;5022400;28;20092;-62
2022/02/16 10:47:01;;;;;;;9.25;5.55;;;17.60;68.80;;;;;;5025361;28;20040;-62
2022/02/16 10:49:27;;;;;;;9.65;5.43;;;17.70;68.80;;;;;;5026661;28;20083;-62
2022/02/16 10:52:12;;;;;;;8.18;5.32;;;17.70;68.60;;;;;;5028073;28;20095;-61
2022/02/16 10:54:38;;;;;;;9.32;5.25;;;17.80;68.50;;;;;;5014327;28;20021;-62
2022/02/16 10:57:04;;;;;;;8.75;4.78;;;17.90;68.50;;;;;;5028820;28;20026;-62
2022/02/16 10:59:30;;;;;;;8.63;5.15;;;17.90;68.30;;;;;;5029661;28;20448;-62
2022/02/16 11:01:56;;;;;;;7.50;4.47;;;18.00;68.40;;;;;;5026353;28;20087;-62
2022/02/16 11:04:22;;;;;;;7.82;4.88;;;18.00;68.20;;;;;;5027761;28;20689;-62
2022/02/16 11:06:48;;;;;;;9.60;5.00;;;18.10;68.20;;;;;;5041706;28;20026;-62
2022/02/16 11:09:16;;;;;;;9.93;6.50;;;18.20;68.10;;;;;;5028041;28;20449;-61
2022/02/16 11:11:42;;;;;;;9.57;6.60;;;18.20;67.90;;;;;;5029602;28;20061;-62
2022/02/16 11:14:08;;;;;;;11.93;6.13;;;18.30;67.70;;;;;;5026679;28;20029;-62
2022/02/16 11:16:34;;;;;;;8.18;6.00;;;18.40;67.50;;;;;;5058106;28;20097;-61
2022/02/16 11:19:01;;;;;;;9.30;6.50;;;18.40;67.40;;;;;;5041359;28;20108;-62
2022/02/16 11:21:30;;;;;;;12.50;6.72;;;18.50;67.40;;;;;;5025920;28;20029;-62
2022/02/16 11:23:58;;;;;;;11.00;7.78;;;18.50;67.30;;;;;;5029557;28;20161;-62
2022/02/16 11:26:26;;;;;;;10.32;6.95;;;18.60;67.20;;;;;;5027103;28;20087;-62
2022/02/16 11:28:52;;;;;;;10.65;7.22;;;18.60;67.00;;;;;;5026005;28;20037;-61
2022/02/16 11:31:37;;;;;;;14.20;7.57;;;18.70;66.70;;;;;;5059289;28;20095;-61
2022/02/16 11:34:19;;;;;;;10.38;6.75;;;18.80;66.50;;;;;;5027354;28;20164;-61
2022/02/16 11:36:49;;;;;;;13.23;6.90;;;18.90;66.40;;;;;;5027019;28;20052;-61
2022/02/16 11:39:49;;;;;;;10.02;6.78;;;19.10;66.90;;;;;;5027358;28;20472;-61
2022/02/16 11:42:19;;;;;;;10.95;7.30;;;19.20;66.30;;;;;;5026412;28;20397;-62
2022/02/16 11:44:51;;;;;;;14.23;6.93;;;19.30;66.10;;;;;;5029764;28;20514;-61
2022/02/16 11:47:41;;;;;;;11.25;6.93;;;19.30;66.30;;;;;;5019883;28;20026;-62
2022/02/16 11:50:13;;;;;;;10.73;7.22;;;19.40;66.00;;;;;;5025093;28;20029;-61
2022/02/16 11:52:52;;;;;;;10.23;7.00;;;19.40;65.80;;;;;;5026841;28;20049;-62
2022/02/16 11:55:27;;;;;;;10.65;8.00;;;19.50;65.50;;;;;;5025796;28;20029;-61
2022/02/16 11:58:13;;;;;;;13.02;7.57;;;19.60;65.40;;;;;;5027293;28;20067;-60
2022/02/16 12:00:42;;;;;;;12.45;7.55;;;19.50;65.50;;;;;;5012192;28;20033;-61
2022/02/16 12:03:08;;;;;;;10.25;7.20;;;19.50;65.40;;;;;;5027535;28;20029;-62
2022/02/16 12:05:58;;;;;;;12.57;7.25;;;19.50;65.60;;;;;;5027071;28;20038;-61
2022/02/16 12:08:24;;;;;;;12.32;7.00;;;19.50;65.50;;;;;;5026630;28;20087;-62
2022/02/16 12:10:53;;;;;;;11.48;7.68;;;19.60;65.80;;;;;;5026931;28;20038;-63
2022/02/16 12:13:34;;;;;;;13.27;7.28;;;19.60;65.30;;;;;;5026578;28;20120;-62
2022/02/16 12:16:07;;;;;;;14.30;7.50;;;19.70;65.30;;;;;;5026821;28;20594;-62
2022/02/16 12:18:33;;;;;;;13.32;8.77;;;19.80;65.30;;;;;;5029513;28;20058;-61
2022/02/16 12:21:00;;;;;;;14.02;9.82;;;19.80;64.90;;;;;;5032200;28;20818;-63
2022/02/16 12:23:27;;;;;;;13.73;9.38;;;19.90;64.80;;;;;;5031953;28;20026;-62
2022/02/16 12:26:08;;;;;;;14.63;11.00;;;20.00;64.80;;;;;;5062669;28;20033;-60
2022/02/16 12:28:53;;;;;;;16.38;13.48;;;20.00;64.60;;;;;;5030850;28;20025;-61
2022/02/16 12:31:19;;;;;;;18.13;14.68;;;20.00;64.60;;;;;;5030481;28;20138;-62
2022/02/16 12:33:55;;;;;;;18.27;14.65;;;20.00;64.60;;;;;;5029201;28;20045;-62
2022/02/16 12:36:22;;;;;;;21.63;15.32;;;20.00;64.70;;;;;;5030645;28;20044;-62
2022/02/16 12:38:48;;;;;;;20.88;16.67;;;20.10;64.40;;;;;;5033173;28;20504;-62
2022/02/16 12:41:16;;;;;;;37.35;31.80;;;20.10;64.40;;;;;;5029053;28;20071;-63
2022/02/16 12:43:59;;;;;;;31.83;27.48;;;20.10;64.40;;;;;;5029291;28;20036;-61
2022/02/16 12:46:30;;;;;;;39.92;35.00;;;20.20;64.20;;;;;;5028911;28;20030;-62